createdAt,value
2022-08-01T00:00:28.773Z,0.00
2022-08-01T00:01:28.772Z,0.00
2022-08-01T00:02:28.783Z,0.00
2022-08-01T00:03:28.752Z,0.00
2022-08-01T00:04:28.733Z,0.00
2022-08-01T00:05:28.754Z,0.00
2022-08-01T00:06:28.733Z,0.00
2022-08-01T00:07:28.709Z,0.00
2022-08-01T00:08:28.710Z,0.00
2022-08-01T00:09:28.693Z,0.00
2022-08-01T00:10:28.677Z,0.00
2022-08-01T00:11:28.711Z,0.00
2022-08-01T00:12:28.668Z,0.00
2022-08-01T00:13:28.642Z,0.00
2022-08-01T00:14:32.015Z,0.00
2022-08-01T00:15:28.613Z,0.00
2022-08-01T00:16:28.611Z,0.00
2022-08-01T00:17:28.599Z,0.00
2022-08-01T00:18:28.609Z,0.00
2022-08-01T00:19:28.612Z,0.00
2022-08-01T00:20:28.574Z,0.00
2022-08-01T00:21:28.627Z,0.00
2022-08-01T00:22:28.547Z,0.00
2022-08-01T00:23:28.535Z,0.00
2022-08-01T00:24:28.558Z,0.00
2022-08-01T00:25:34.090Z,0.00
2022-08-01T00:26:28.570Z,0.00
2022-08-01T00:27:28.546Z,0.00
2022-08-01T00:28:28.484Z,0.00
2022-08-01T00:30:04.736Z,0.00
2022-08-01T00:30:28.504Z,0.00
2022-08-01T00:31:28.483Z,0.00
2022-08-01T00:32:28.447Z,0.00
2022-08-01T00:33:28.440Z,0.00
2022-08-01T00:34:28.543Z,0.00
2022-08-01T00:35:28.430Z,0.00
2022-08-01T00:36:28.400Z,0.00
2022-08-01T00:37:28.385Z,0.00
2022-08-01T00:38:28.387Z,0.00
2022-08-01T00:39:28.383Z,0.00
2022-08-01T00:40:28.385Z,0.00
2022-08-01T00:41:28.374Z,0.00
2022-08-01T00:42:28.358Z,0.00
2022-08-01T00:43:28.335Z,0.00
2022-08-01T00:44:28.351Z,0.00
2022-08-01T00:45:28.350Z,0.00
2022-08-01T00:46:28.300Z,0.00
2022-08-01T00:47:28.293Z,0.00
2022-08-01T00:48:28.296Z,0.00
2022-08-01T00:49:28.330Z,0.00
2022-08-01T00:50:28.279Z,0.00
2022-08-01T00:51:28.245Z,0.00
2022-08-01T00:52:28.238Z,0.00
2022-08-01T00:53:28.251Z,0.00
2022-08-01T00:54:28.268Z,0.00
2022-08-01T00:55:28.218Z,0.00
2022-08-01T00:56:28.207Z,0.00
2022-08-01T00:58:01.759Z,0.00
2022-08-01T00:58:28.219Z,0.00
2022-08-01T00:59:28.269Z,0.00
2022-08-01T01:00:28.277Z,0.00
2022-08-01T01:01:36.269Z,0.00
2022-08-01T01:03:58.037Z,0.00
2022-08-01T01:04:40.042Z,0.00
2022-08-01T01:05:40.005Z,0.00
2022-08-01T01:06:39.976Z,0.00
2022-08-01T01:07:49.705Z,0.00
2022-08-01T01:08:40.046Z,0.00
2022-08-01T01:09:39.949Z,0.00
2022-08-01T01:10:39.956Z,0.00
2022-08-01T01:11:39.931Z,0.00
2022-08-01T01:12:41.754Z,0.00
2022-08-01T01:13:50.441Z,0.00
2022-08-01T01:14:39.909Z,0.00
2022-08-01T01:15:39.913Z,0.00
2022-08-01T01:16:39.894Z,0.00
2022-08-01T01:17:51.268Z,0.00
2022-08-01T01:18:39.879Z,0.00
2022-08-01T01:19:39.869Z,0.00
2022-08-01T01:20:39.871Z,0.00
2022-08-01T01:21:39.823Z,0.00
2022-08-01T01:22:39.818Z,0.00
2022-08-01T01:23:39.804Z,0.00
2022-08-01T01:24:39.795Z,0.00
2022-08-01T01:25:39.806Z,0.00
2022-08-01T01:26:39.789Z,0.00
2022-08-01T01:27:39.763Z,0.00
2022-08-01T01:28:39.800Z,0.00
2022-08-01T01:30:00.170Z,0.00
2022-08-01T01:30:39.812Z,0.00
2022-08-01T01:31:39.737Z,0.00
2022-08-01T01:32:39.736Z,0.00
2022-08-01T01:33:47.015Z,0.00
2022-08-01T01:34:39.696Z,0.00
2022-08-01T01:35:39.695Z,0.00
2022-08-01T01:36:39.669Z,0.00
2022-08-01T01:37:39.676Z,0.00
2022-08-01T01:38:39.674Z,0.00
2022-08-01T01:39:39.642Z,0.00
2022-08-01T01:40:39.648Z,0.00
2022-08-01T01:41:39.623Z,0.00
2022-08-01T01:42:39.617Z,0.00
2022-08-01T01:43:39.600Z,0.00
2022-08-01T01:44:39.583Z,0.00
2022-08-01T01:45:39.605Z,0.00
2022-08-01T01:46:39.563Z,0.00
2022-08-01T01:47:39.562Z,0.00
2022-08-01T01:48:39.547Z,0.00
2022-08-01T01:49:39.563Z,0.00
2022-08-01T01:50:39.542Z,0.00
2022-08-01T01:51:39.517Z,0.00
2022-08-01T01:52:39.500Z,0.00
2022-08-01T01:53:39.530Z,0.00
2022-08-01T01:54:39.486Z,0.00
2022-08-01T01:55:49.549Z,0.00
2022-08-01T01:56:39.469Z,0.00
2022-08-01T01:57:39.451Z,0.00
2022-08-01T01:58:39.444Z,0.00
2022-08-01T01:59:39.437Z,0.00
2022-08-01T02:00:39.440Z,0.00
2022-08-01T02:02:05.322Z,0.00
2022-08-01T02:02:39.471Z,0.00
2022-08-01T02:03:39.394Z,0.00
2022-08-01T02:04:39.398Z,0.00
2022-08-01T02:05:39.399Z,0.00
2022-08-01T02:06:39.384Z,0.00
2022-08-01T02:07:39.355Z,0.00
2022-08-01T02:08:39.345Z,0.00
2022-08-01T02:09:39.333Z,0.00
2022-08-01T02:10:39.332Z,0.00
2022-08-01T02:11:39.336Z,0.00
2022-08-01T02:12:39.300Z,0.00
2022-08-01T02:13:39.290Z,0.00
2022-08-01T02:14:39.289Z,0.00
2022-08-01T02:15:39.305Z,0.00
2022-08-01T02:16:39.256Z,0.00
2022-08-01T02:17:39.250Z,0.00
2022-08-01T02:18:39.253Z,0.00
2022-08-01T02:19:39.229Z,0.00
2022-08-01T02:20:39.211Z,0.00
2022-08-01T02:21:39.205Z,0.00
2022-08-01T02:22:39.194Z,0.00
2022-08-01T02:23:39.212Z,0.00
2022-08-01T02:24:39.175Z,0.00
2022-08-01T02:25:39.164Z,0.00
2022-08-01T02:26:39.159Z,0.00
2022-08-01T02:27:39.151Z,0.00
2022-08-01T02:28:39.149Z,0.00
2022-08-01T02:29:39.126Z,0.00
2022-08-01T02:30:39.113Z,0.00
2022-08-01T02:31:39.109Z,0.00
2022-08-01T02:32:39.090Z,0.00
2022-08-01T02:33:39.101Z,0.00
2022-08-01T02:34:39.084Z,0.00
2022-08-01T02:36:29.730Z,0.00
2022-08-01T02:36:39.055Z,0.00
2022-08-01T02:37:41.880Z,0.00
2022-08-01T02:38:39.066Z,0.00
2022-08-01T02:39:39.019Z,0.00
2022-08-01T02:40:39.020Z,0.00
2022-08-01T02:41:39.000Z,0.00
2022-08-01T02:42:38.992Z,0.00
2022-08-01T02:43:39.002Z,0.00
2022-08-01T02:44:39.008Z,0.00
2022-08-01T02:45:38.977Z,0.00
2022-08-01T02:46:38.958Z,0.00
2022-08-01T02:47:38.962Z,0.00
2022-08-01T02:48:38.943Z,0.00
2022-08-01T02:49:38.919Z,0.00
2022-08-01T02:50:38.911Z,0.00
2022-08-01T02:51:38.897Z,0.00
2022-08-01T02:52:38.881Z,0.00
2022-08-01T02:53:44.488Z,0.00
2022-08-01T02:54:38.888Z,0.00
2022-08-01T02:55:38.857Z,0.00
2022-08-01T02:56:38.803Z,1.00
2022-08-01T02:57:51.563Z,1.00
2022-08-01T02:58:38.848Z,0.00
2022-08-01T02:59:38.813Z,0.00
2022-08-01T03:00:38.815Z,0.00
2022-08-01T03:01:38.854Z,0.00
2022-08-01T03:02:38.780Z,0.00
2022-08-01T03:03:38.749Z,1.00
2022-08-01T03:04:38.714Z,1.00
2022-08-01T03:05:38.753Z,0.00
2022-08-01T03:06:38.742Z,0.00
2022-08-01T03:07:40.578Z,3.00
2022-08-01T03:08:38.680Z,2.00
2022-08-01T03:09:38.654Z,6.00
2022-08-01T03:10:38.643Z,5.00
2022-08-01T03:11:38.640Z,5.00
2022-08-01T03:12:38.628Z,4.00
2022-08-01T03:13:38.650Z,2.00
2022-08-01T03:14:38.602Z,5.00
2022-08-01T03:15:38.598Z,6.00
2022-08-01T03:16:38.579Z,9.00
2022-08-01T03:17:38.577Z,11.00
2022-08-01T03:18:38.579Z,13.00
2022-08-01T03:19:38.552Z,13.00
2022-08-01T03:20:38.538Z,13.00
2022-08-01T03:21:38.535Z,14.00
2022-08-01T03:22:38.531Z,12.00
2022-08-01T03:23:38.668Z,18.00
2022-08-01T03:24:38.499Z,26.00
2022-08-01T03:25:38.489Z,24.00
2022-08-01T03:26:38.478Z,27.00
2022-08-01T03:27:38.499Z,32.00
2022-08-01T03:28:38.452Z,28.00
2022-08-01T03:29:38.446Z,31.00
2022-08-01T03:30:38.434Z,35.00
2022-08-01T03:31:38.429Z,40.00
2022-08-01T03:32:38.435Z,42.00
2022-08-01T03:33:38.414Z,43.00
2022-08-01T03:34:38.431Z,47.00
2022-08-01T03:35:38.388Z,53.00
2022-08-01T03:36:38.405Z,58.00
2022-08-01T03:37:45.724Z,55.00
2022-08-01T03:38:38.359Z,52.00
2022-08-01T03:39:38.361Z,52.00
2022-08-01T03:40:38.342Z,45.00
2022-08-01T03:41:38.323Z,48.00
2022-08-01T03:42:38.332Z,47.00
2022-08-01T03:43:38.338Z,47.00
2022-08-01T03:44:38.292Z,57.00
2022-08-01T03:45:38.282Z,58.00
2022-08-01T03:46:38.285Z,48.00
2022-08-01T03:47:41.908Z,55.00
2022-08-01T03:48:38.253Z,80.00
2022-08-01T03:49:38.241Z,80.00
2022-08-01T03:50:38.251Z,56.00
2022-08-01T03:51:38.235Z,65.00
2022-08-01T03:52:38.214Z,75.00
2022-08-01T03:53:40.006Z,79.00
2022-08-01T03:54:38.186Z,141.00
2022-08-01T03:55:38.180Z,162.00
2022-08-01T03:56:38.204Z,133.00
2022-08-01T03:57:38.158Z,110.00
2022-08-01T03:58:38.144Z,90.00
2022-08-01T03:59:38.150Z,103.00
2022-08-01T04:00:38.128Z,114.00
2022-08-01T04:01:38.236Z,114.00
2022-08-01T04:02:38.104Z,117.00
2022-08-01T04:03:41.951Z,153.00
2022-08-01T04:04:38.091Z,170.00
2022-08-01T04:05:38.076Z,139.00
2022-08-01T04:06:38.094Z,125.00
2022-08-01T04:07:38.055Z,118.00
2022-08-01T04:08:38.047Z,125.00
2022-08-01T04:09:38.037Z,129.00
2022-08-01T04:10:38.021Z,146.00
2022-08-01T04:11:38.035Z,172.00
2022-08-01T04:12:38.000Z,137.00
2022-08-01T04:13:38.260Z,128.00
2022-08-01T04:14:37.985Z,97.00
2022-08-01T04:15:37.967Z,145.00
2022-08-01T04:16:38.002Z,170.00
2022-08-01T04:17:37.956Z,154.00
2022-08-01T04:18:37.945Z,172.00
2022-08-01T04:19:37.951Z,151.00
2022-08-01T04:20:37.930Z,126.00
2022-08-01T04:21:37.930Z,131.00
2022-08-01T04:22:37.917Z,190.00
2022-08-01T04:23:37.911Z,130.00
2022-08-01T04:24:37.912Z,154.00
2022-08-01T04:25:37.869Z,137.00
2022-08-01T04:26:37.905Z,158.00
2022-08-01T04:27:48.618Z,164.00
2022-08-01T04:28:37.845Z,175.00
2022-08-01T04:29:37.826Z,183.00
2022-08-01T04:30:37.821Z,199.00
2022-08-01T04:31:37.836Z,190.00
2022-08-01T04:32:37.798Z,236.00
2022-08-01T04:33:37.783Z,244.00
2022-08-01T04:34:37.774Z,249.00
2022-08-01T04:36:01.810Z,288.00
2022-08-01T04:36:37.777Z,253.00
2022-08-01T04:37:37.762Z,305.00
2022-08-01T04:38:37.923Z,305.00
2022-08-01T04:39:50.754Z,295.00
2022-08-01T04:40:37.737Z,328.00
2022-08-01T04:41:37.718Z,322.00
2022-08-01T04:42:37.694Z,314.00
2022-08-01T04:43:37.681Z,286.00
2022-08-01T04:44:37.681Z,207.00
2022-08-01T04:45:37.656Z,215.00
2022-08-01T04:46:37.664Z,299.00
2022-08-01T04:47:37.637Z,354.00
2022-08-01T04:48:37.634Z,422.00
2022-08-01T04:49:48.956Z,525.00
2022-08-01T04:50:37.631Z,467.00
2022-08-01T04:51:37.612Z,523.00
2022-08-01T04:52:37.589Z,430.00
2022-08-01T04:53:37.589Z,387.00
2022-08-01T04:54:37.569Z,328.00
2022-08-01T04:55:37.555Z,261.00
2022-08-01T04:56:37.563Z,291.00
2022-08-01T04:57:37.545Z,211.00
2022-08-01T04:58:37.533Z,197.00
2022-08-01T04:59:37.517Z,208.00
2022-08-01T05:00:37.535Z,158.00
2022-08-01T05:01:37.639Z,236.00
2022-08-01T05:02:37.518Z,172.00
2022-08-01T05:03:39.127Z,242.00
2022-08-01T05:04:37.478Z,180.00
2022-08-01T05:05:37.455Z,198.00
2022-08-01T05:06:37.465Z,227.00
2022-08-01T05:07:44.844Z,183.00
2022-08-01T05:08:37.441Z,302.00
2022-08-01T05:09:37.412Z,184.00
2022-08-01T05:10:37.403Z,258.00
2022-08-01T05:11:37.401Z,271.00
2022-08-01T05:12:37.382Z,255.00
2022-08-01T05:13:37.379Z,205.00
2022-08-01T05:14:37.365Z,278.00
2022-08-01T05:15:37.346Z,212.00
2022-08-01T05:16:37.356Z,224.00
2022-08-01T05:17:37.392Z,237.00
2022-08-01T05:18:37.322Z,215.00
2022-08-01T05:19:37.307Z,194.00
2022-08-01T05:20:37.298Z,152.00
2022-08-01T05:21:37.321Z,153.00
2022-08-01T05:22:37.286Z,220.00
2022-08-01T05:23:42.822Z,168.00
2022-08-01T05:24:37.279Z,197.00
2022-08-01T05:25:56.613Z,240.00
2022-08-01T05:26:37.268Z,341.00
2022-08-01T05:27:37.227Z,279.00
2022-08-01T05:28:37.229Z,513.00
2022-08-01T05:29:41.380Z,423.00
2022-08-01T05:30:37.204Z,530.00
2022-08-01T05:31:37.193Z,337.00
2022-08-01T05:32:37.171Z,359.00
2022-08-01T05:33:37.173Z,383.00
2022-08-01T05:34:37.162Z,295.00
2022-08-01T05:35:49.074Z,464.00
2022-08-01T05:36:37.177Z,356.00
2022-08-01T05:37:37.143Z,234.00
2022-08-01T05:38:37.119Z,319.00
2022-08-01T05:39:37.100Z,265.00
2022-08-01T05:40:37.126Z,332.00
2022-08-01T05:41:37.090Z,380.00
2022-08-01T05:42:37.073Z,469.00
2022-08-01T05:43:37.060Z,323.00
2022-08-01T05:44:37.054Z,428.00
2022-08-01T05:45:37.035Z,394.00
2022-08-01T05:46:37.069Z,468.00
2022-08-01T05:47:37.014Z,403.00
2022-08-01T05:48:37.018Z,364.00
2022-08-01T05:49:37.045Z,353.00
2022-08-01T05:50:36.993Z,427.00
2022-08-01T05:51:36.994Z,460.00
2022-08-01T05:52:36.968Z,562.00
2022-08-01T05:53:36.974Z,515.00
2022-08-01T05:54:36.965Z,720.00
2022-08-01T05:55:36.936Z,540.00
2022-08-01T05:56:36.987Z,543.00
2022-08-01T05:57:36.927Z,605.00
2022-08-01T05:58:36.907Z,554.00
2022-08-01T05:59:36.894Z,672.00
2022-08-01T06:00:36.892Z,639.00
2022-08-01T06:01:36.950Z,668.00
2022-08-01T06:02:36.936Z,324.00
2022-08-01T06:03:36.858Z,1062.00
2022-08-01T06:04:36.886Z,829.00
2022-08-01T06:05:36.857Z,682.00
2022-08-01T06:06:36.868Z,527.00
2022-08-01T06:07:37.790Z,590.00
2022-08-01T06:08:36.948Z,532.00
2022-08-01T06:09:36.826Z,606.00
2022-08-01T06:10:36.837Z,293.00
2022-08-01T06:11:36.851Z,705.00
2022-08-01T06:12:36.769Z,766.00
2022-08-01T06:13:44.930Z,660.00
2022-08-01T06:14:36.770Z,815.00
2022-08-01T06:15:36.733Z,589.00
2022-08-01T06:16:36.738Z,390.00
2022-08-01T06:17:36.702Z,512.00
2022-08-01T06:18:36.697Z,563.00
2022-08-01T06:19:36.702Z,693.00
2022-08-01T06:20:36.685Z,1030.00
2022-08-01T06:21:36.689Z,785.00
2022-08-01T06:22:36.689Z,784.00
2022-08-01T06:23:36.666Z,719.00
2022-08-01T06:24:36.638Z,520.00
2022-08-01T06:25:36.630Z,691.00
2022-08-01T06:26:36.636Z,648.00
2022-08-01T06:27:36.614Z,673.00
2022-08-01T06:28:36.599Z,544.00
2022-08-01T06:29:36.607Z,465.00
2022-08-01T06:30:36.579Z,367.00
2022-08-01T06:31:36.581Z,285.00
2022-08-01T06:32:36.562Z,172.00
2022-08-01T06:33:36.566Z,229.00
2022-08-01T06:34:36.536Z,309.00
2022-08-01T06:35:36.521Z,669.00
2022-08-01T06:36:36.545Z,603.00
2022-08-01T06:37:36.512Z,1260.00
2022-08-01T06:38:36.494Z,773.00
2022-08-01T06:39:36.481Z,535.00
2022-08-01T06:40:36.470Z,378.00
2022-08-01T06:41:36.458Z,220.00
2022-08-01T06:42:36.535Z,471.00
2022-08-01T06:43:36.465Z,762.00
2022-08-01T06:44:36.433Z,552.00
2022-08-01T06:45:36.425Z,381.00
2022-08-01T06:46:36.411Z,620.00
2022-08-01T06:47:36.418Z,422.00
2022-08-01T06:48:36.396Z,301.00
2022-08-01T06:49:36.459Z,567.00
2022-08-01T06:50:36.371Z,308.00
2022-08-01T06:51:36.364Z,257.00
2022-08-01T06:52:36.426Z,555.00
2022-08-01T06:53:36.683Z,726.00
2022-08-01T06:54:36.323Z,1104.00
2022-08-01T06:55:36.322Z,1338.00
2022-08-01T06:56:36.345Z,1096.00
2022-08-01T06:57:36.310Z,801.00
2022-08-01T06:58:36.288Z,910.00
2022-08-01T06:59:36.300Z,796.00
2022-08-01T07:00:36.356Z,1038.00
2022-08-01T07:01:36.317Z,891.00
2022-08-01T07:02:36.276Z,822.00
2022-08-01T07:03:53.954Z,936.00
2022-08-01T07:04:36.298Z,1406.00
2022-08-01T07:05:36.224Z,1344.00
2022-08-01T07:06:36.231Z,2622.00
2022-08-01T07:07:36.282Z,2520.00
2022-08-01T07:08:36.217Z,1901.00
2022-08-01T07:09:36.236Z,1360.00
2022-08-01T07:10:36.208Z,1261.00
2022-08-01T07:11:36.223Z,1468.00
2022-08-01T07:12:36.262Z,1402.00
2022-08-01T07:13:43.807Z,937.00
2022-08-01T07:14:36.150Z,1241.00
2022-08-01T07:15:36.230Z,1148.00
2022-08-01T07:16:36.159Z,856.00
2022-08-01T07:17:36.116Z,661.00
2022-08-01T07:18:36.103Z,616.00
2022-08-01T07:19:36.095Z,411.00
2022-08-01T07:20:41.295Z,432.00
2022-08-01T07:21:40.241Z,464.00
2022-08-01T07:22:37.195Z,402.00
2022-08-01T07:23:36.776Z,363.00
2022-08-01T07:24:36.112Z,411.00
2022-08-01T07:25:36.069Z,437.00
2022-08-01T07:26:36.042Z,291.00
2022-08-01T07:27:36.034Z,247.00
2022-08-01T07:28:35.999Z,344.00
2022-08-01T07:29:36.041Z,337.00
2022-08-01T07:30:36.021Z,266.00
2022-08-01T07:31:35.958Z,225.00
2022-08-01T07:32:36.034Z,315.00
2022-08-01T07:33:48.347Z,896.00
2022-08-01T07:34:35.997Z,1057.00
2022-08-01T07:35:35.935Z,1254.00
2022-08-01T07:36:35.906Z,1451.00
2022-08-01T07:37:45.556Z,1028.00
2022-08-01T07:38:36.038Z,1560.00
2022-08-01T07:39:35.879Z,1945.00
2022-08-01T07:40:35.885Z,1392.00
2022-08-01T07:42:04.699Z,1322.00
2022-08-01T07:42:35.905Z,1116.00
2022-08-01T07:43:35.962Z,1281.00
2022-08-01T07:44:35.824Z,1141.00
2022-08-01T07:45:35.851Z,1506.00
2022-08-01T07:46:35.805Z,1366.00
2022-08-01T07:47:35.826Z,760.00
2022-08-01T07:48:35.813Z,832.00
2022-08-01T07:49:39.841Z,895.00
2022-08-01T07:50:35.785Z,720.00
2022-08-01T07:51:35.776Z,727.00
2022-08-01T07:52:35.779Z,531.00
2022-08-01T07:53:35.728Z,371.00
2022-08-01T07:54:35.729Z,264.00
2022-08-01T07:55:35.719Z,208.00
2022-08-01T07:56:35.732Z,253.00
2022-08-01T07:57:35.803Z,292.00
2022-08-01T07:58:35.715Z,293.00
2022-08-01T07:59:35.714Z,393.00
2022-08-01T08:00:35.698Z,527.00
2022-08-01T08:01:35.822Z,1021.00
2022-08-01T08:02:35.761Z,1250.00
2022-08-01T08:03:35.625Z,1443.00
2022-08-01T08:04:35.622Z,1669.00
2022-08-01T08:05:58.877Z,1984.00
2022-08-01T08:06:35.637Z,2145.00
2022-08-01T08:07:35.594Z,1643.00
2022-08-01T08:08:35.585Z,2874.00
2022-08-01T08:09:37.314Z,1985.00
2022-08-01T08:10:35.569Z,1521.00
2022-08-01T08:11:35.621Z,1228.00
2022-08-01T08:12:35.595Z,908.00
2022-08-01T08:13:35.532Z,763.00
2022-08-01T08:14:35.785Z,807.00
2022-08-01T08:15:35.563Z,660.00
2022-08-01T08:16:35.478Z,548.00
2022-08-01T08:17:36.366Z,423.00
2022-08-01T08:18:35.531Z,387.00
2022-08-01T08:19:38.623Z,362.00
2022-08-01T08:20:35.470Z,288.00
2022-08-01T08:21:35.649Z,251.00
2022-08-01T08:22:35.499Z,278.00
2022-08-01T08:23:42.565Z,285.00
2022-08-01T08:24:35.406Z,272.00
2022-08-01T08:25:35.398Z,266.00
2022-08-01T08:26:35.432Z,260.00
2022-08-01T08:27:35.373Z,204.00
2022-08-01T08:28:35.388Z,226.00
2022-08-01T08:29:36.034Z,169.00
2022-08-01T08:30:35.363Z,156.00
2022-08-01T08:31:52.251Z,129.00
2022-08-01T08:32:35.326Z,128.00
2022-08-01T08:33:35.340Z,275.00
2022-08-01T08:34:35.379Z,313.00
2022-08-01T08:35:40.256Z,626.00
2022-08-01T08:36:35.346Z,782.00
2022-08-01T08:37:39.167Z,598.00
2022-08-01T08:38:35.263Z,1280.00
2022-08-01T08:39:42.117Z,739.00
2022-08-01T08:40:35.275Z,896.00
2022-08-01T08:41:36.922Z,917.00
2022-08-01T08:42:35.283Z,752.00
2022-08-01T08:43:35.249Z,1215.00
2022-08-01T08:44:35.267Z,1549.00
2022-08-01T08:45:58.719Z,1192.00
2022-08-01T08:46:35.232Z,1386.00
2022-08-01T08:47:35.201Z,1175.00
2022-08-01T08:48:35.164Z,1102.00
2022-08-01T08:49:36.191Z,834.00
2022-08-01T08:50:35.131Z,771.00
2022-08-01T08:51:35.196Z,627.00
2022-08-01T08:52:35.139Z,488.00
2022-08-01T08:53:35.109Z,898.00
2022-08-01T08:54:35.121Z,1379.00
2022-08-01T08:55:35.126Z,1681.00
2022-08-01T08:56:35.145Z,1520.00
2022-08-01T08:57:35.072Z,2034.00
2022-08-01T08:58:35.105Z,2373.00
2022-08-01T08:59:35.107Z,2520.00
2022-08-01T09:00:35.083Z,2448.00
2022-08-01T09:01:35.063Z,1994.00
2022-08-01T09:02:35.028Z,1555.00
2022-08-01T09:03:35.096Z,1254.00
2022-08-01T09:04:34.994Z,991.00
2022-08-01T09:05:39.294Z,739.00
2022-08-01T09:06:34.996Z,505.00
2022-08-01T09:07:35.042Z,877.00
2022-08-01T09:08:34.961Z,815.00
2022-08-01T09:09:34.935Z,866.00
2022-08-01T09:10:34.923Z,968.00
2022-08-01T09:11:34.985Z,990.00
2022-08-01T09:12:34.901Z,1059.00
2022-08-01T09:13:34.949Z,716.00
2022-08-01T09:14:34.895Z,853.00
2022-08-01T09:15:34.903Z,955.00
2022-08-01T09:16:34.964Z,1218.00
2022-08-01T09:17:34.883Z,1551.00
2022-08-01T09:18:34.897Z,1972.00
2022-08-01T09:19:39.949Z,1844.00
2022-08-01T09:20:34.848Z,1951.00
2022-08-01T09:21:34.892Z,1956.00
2022-08-01T09:22:34.811Z,2664.00
2022-08-01T09:23:34.839Z,1866.00
2022-08-01T09:24:34.850Z,1906.00
2022-08-01T09:25:45.961Z,2046.00
2022-08-01T09:26:34.824Z,2220.00
2022-08-01T09:27:34.807Z,2080.00
2022-08-01T09:28:34.762Z,1906.00
2022-08-01T09:29:38.229Z,1469.00
2022-08-01T09:30:34.724Z,1556.00
2022-08-01T09:31:38.149Z,1239.00
2022-08-01T09:32:36.530Z,1089.00
2022-08-01T09:33:35.016Z,864.00
2022-08-01T09:34:34.722Z,703.00
2022-08-01T09:35:36.284Z,876.00
2022-08-01T09:36:34.652Z,801.00
2022-08-01T09:37:37.285Z,756.00
2022-08-01T09:38:34.687Z,548.00
2022-08-01T09:39:34.662Z,823.00
2022-08-01T09:40:34.623Z,913.00
2022-08-01T09:41:37.715Z,774.00
2022-08-01T09:42:34.658Z,1159.00
2022-08-01T09:43:34.592Z,1618.00
2022-08-01T09:44:42.318Z,2150.00
2022-08-01T09:45:41.691Z,1753.00
2022-08-01T09:46:34.607Z,1698.00
2022-08-01T09:47:34.682Z,1608.00
2022-08-01T09:48:34.598Z,1479.00
2022-08-01T09:49:50.548Z,1418.00
2022-08-01T09:50:34.572Z,1247.00
2022-08-01T09:51:59.857Z,1213.00
2022-08-01T09:52:34.542Z,1041.00
2022-08-01T09:53:34.555Z,935.00
2022-08-01T09:54:34.588Z,837.00
2022-08-01T09:55:34.505Z,773.00
2022-08-01T09:56:34.473Z,585.00
2022-08-01T09:57:34.559Z,529.00
2022-08-01T09:58:34.447Z,380.00
2022-08-01T09:59:56.721Z,354.00
2022-08-01T10:00:45.395Z,235.00
2022-08-01T10:01:36.716Z,281.00
2022-08-01T10:02:34.475Z,250.00
2022-08-01T10:03:34.514Z,549.00
2022-08-01T10:04:34.494Z,489.00
2022-08-01T10:05:36.878Z,1056.00
2022-08-01T10:06:34.369Z,1126.00
2022-08-01T10:07:43.217Z,1187.00
2022-08-01T10:08:34.446Z,1116.00
2022-08-01T10:09:36.075Z,948.00
2022-08-01T10:10:34.355Z,812.00
2022-08-01T10:11:36.203Z,836.00
2022-08-01T10:12:35.528Z,578.00
2022-08-01T10:13:36.453Z,1014.00
2022-08-01T10:14:34.268Z,1153.00
2022-08-01T10:15:37.404Z,765.00
2022-08-01T10:16:34.299Z,690.00
2022-08-01T10:17:49.995Z,842.00
2022-08-01T10:18:34.218Z,1098.00
2022-08-01T10:19:34.208Z,1210.00
2022-08-01T10:20:34.193Z,1014.00
2022-08-01T10:21:56.729Z,1217.00
2022-08-01T10:22:34.201Z,1205.00
2022-08-01T10:23:39.963Z,1143.00
2022-08-01T10:24:34.159Z,970.00
2022-08-01T10:25:42.417Z,1173.00
2022-08-01T10:26:34.138Z,1047.00
2022-08-01T10:27:38.462Z,1065.00
2022-08-01T10:28:34.117Z,1892.00
2022-08-01T10:29:46.753Z,1719.00
2022-08-01T10:30:34.098Z,1273.00
2022-08-01T10:31:34.083Z,1436.00
2022-08-01T10:32:34.095Z,1600.00
2022-08-01T10:33:52.509Z,1318.00
2022-08-01T10:34:34.055Z,898.00
2022-08-01T10:35:46.858Z,840.00
2022-08-01T10:36:34.033Z,855.00
2022-08-01T10:37:34.048Z,671.00
2022-08-01T10:38:34.007Z,711.00
2022-08-01T10:39:34.010Z,708.00
2022-08-01T10:40:33.986Z,548.00
2022-08-01T10:41:33.995Z,634.00
2022-08-01T10:42:33.979Z,472.00
2022-08-01T10:43:35.310Z,1050.00
2022-08-01T10:44:33.942Z,1084.00
2022-08-01T10:45:33.945Z,974.00
2022-08-01T10:46:33.930Z,878.00
2022-08-01T10:47:52.330Z,966.00
2022-08-01T10:48:33.912Z,982.00
2022-08-01T10:49:33.931Z,1034.00
2022-08-01T10:50:33.879Z,1225.00
2022-08-01T10:51:52.656Z,1255.00
2022-08-01T10:52:39.107Z,790.00
2022-08-01T10:53:42.731Z,1034.00
2022-08-01T10:54:33.866Z,1464.00
2022-08-01T10:55:33.846Z,1318.00
2022-08-01T10:56:33.825Z,1454.00
2022-08-01T10:57:33.897Z,1497.00
2022-08-01T10:58:39.541Z,1275.00
2022-08-01T10:59:49.664Z,1251.00
2022-08-01T11:00:33.842Z,1843.00
2022-08-01T11:01:33.912Z,1234.00
2022-08-01T11:02:33.842Z,1304.00
2022-08-01T11:03:55.511Z,837.00
2022-08-01T11:04:33.749Z,1532.00
2022-08-01T11:05:33.761Z,908.00
2022-08-01T11:06:33.720Z,1102.00
2022-08-01T11:07:34.154Z,1061.00
2022-08-01T11:08:33.693Z,1355.00
2022-08-01T11:09:37.282Z,1111.00
2022-08-01T11:10:33.683Z,1208.00
2022-08-01T11:11:37.812Z,1119.00
2022-08-01T11:12:33.671Z,973.00
2022-08-01T11:13:33.656Z,1325.00
2022-08-01T11:14:53.953Z,1301.00
2022-08-01T11:15:33.638Z,1414.00
2022-08-01T11:16:33.642Z,1575.00
2022-08-01T11:17:37.596Z,1933.00
2022-08-01T11:18:33.611Z,2069.00
2022-08-01T11:19:33.592Z,1649.00
2022-08-01T11:20:33.597Z,1996.00
2022-08-01T11:21:56.791Z,2357.00
2022-08-01T11:22:33.627Z,2344.00
2022-08-01T11:23:36.220Z,2418.00
2022-08-01T11:24:33.578Z,2309.00
2022-08-01T11:26:06.323Z,2480.00
2022-08-01T11:26:33.614Z,2245.00
2022-08-01T11:27:33.922Z,1659.00
2022-08-01T11:28:35.756Z,1518.00
2022-08-01T11:29:33.487Z,975.00
2022-08-01T11:30:33.468Z,715.00
2022-08-01T11:31:37.440Z,592.00
2022-08-01T11:32:52.581Z,679.00
2022-08-01T11:33:33.455Z,698.00
2022-08-01T11:34:33.466Z,521.00
2022-08-01T11:35:33.441Z,516.00
2022-08-01T11:36:57.751Z,405.00
2022-08-01T11:37:33.502Z,307.00
2022-08-01T11:38:33.387Z,346.00
2022-08-01T11:39:38.250Z,262.00
2022-08-01T11:40:33.381Z,205.00
2022-08-01T11:41:37.251Z,275.00
2022-08-01T11:42:33.372Z,203.00
2022-08-01T11:43:33.342Z,238.00
2022-08-01T11:44:33.333Z,312.00
2022-08-01T11:45:33.339Z,327.00
2022-08-01T11:46:33.305Z,417.00
2022-08-01T11:47:36.813Z,571.00
2022-08-01T11:48:33.300Z,584.00
2022-08-01T11:49:33.379Z,889.00
2022-08-01T11:50:33.268Z,936.00
2022-08-01T11:51:33.303Z,1208.00
2022-08-01T11:52:33.279Z,1291.00
2022-08-01T11:53:33.264Z,1372.00
2022-08-01T11:54:35.261Z,1068.00
2022-08-01T11:55:33.245Z,1112.00
2022-08-01T11:56:33.250Z,1725.00
2022-08-01T11:57:34.574Z,1323.00
2022-08-01T11:58:33.231Z,1415.00
2022-08-01T11:59:37.203Z,1288.00
2022-08-01T12:00:33.205Z,1849.00
2022-08-01T12:01:33.204Z,1802.00
2022-08-01T12:02:33.311Z,1606.00
2022-08-01T12:03:34.334Z,2262.00
2022-08-01T12:04:33.179Z,1914.00
2022-08-01T12:05:33.159Z,2318.00
2022-08-01T12:06:33.141Z,2616.00
2022-08-01T12:07:33.262Z,2257.00
2022-08-01T12:08:33.124Z,2008.00
2022-08-01T12:09:33.144Z,2017.00
2022-08-01T12:10:33.106Z,2167.00
2022-08-01T12:11:37.179Z,2248.00
2022-08-01T12:12:33.092Z,2425.00
2022-08-01T12:13:33.100Z,2507.00
2022-08-01T12:14:33.021Z,2645.00
2022-08-01T12:15:33.011Z,2841.00
2022-08-01T12:16:33.248Z,2691.00
2022-08-01T12:17:33.135Z,2259.00
2022-08-01T12:18:33.098Z,1641.00
2022-08-01T12:19:32.999Z,2979.00
2022-08-01T12:20:32.983Z,3519.00
2022-08-01T12:21:33.003Z,3411.00
2022-08-01T12:22:32.978Z,3566.00
2022-08-01T12:23:33.051Z,3193.00
2022-08-01T12:24:32.925Z,3450.00
2022-08-01T12:25:32.906Z,3663.00
2022-08-01T12:26:32.900Z,3689.00
2022-08-01T12:27:32.937Z,2853.00
2022-08-01T12:28:32.869Z,3571.00
2022-08-01T12:29:32.869Z,3712.00
2022-08-01T12:30:32.854Z,2889.00
2022-08-01T12:31:32.849Z,1905.00
2022-08-01T12:32:35.594Z,2613.00
2022-08-01T12:33:35.184Z,2430.00
2022-08-01T12:34:32.811Z,1887.00
2022-08-01T12:35:32.818Z,1163.00
2022-08-01T12:36:33.129Z,862.00